Time;durP1;ratioP1;P1;durP2;ratioP2;P2;SDS_P1;SDS_P2;PMS_P1;PMS_P2;Temp;Humidity;BMP_temperature;BMP_pressure;BME280_temperature;BME280_humidity;BME280_pressure;Samples;Min_cycle;Max_cycle;Signal;HPM_P1;HPM_P2
2024/01/13 00:02:20;;;;;;;16.80;3.22;;;3.40;99.90;;;;;;6093654;23;20011;-71
2024/01/13 00:04:45;;;;;;;14.85;3.03;;;3.40;99.90;;;;;;6093567;23;20041;-71
2024/01/13 00:07:11;;;;;;;12.38;3.58;;;3.40;99.90;;;;;;6067767;23;20030;-71
2024/01/13 00:09:36;;;;;;;18.55;3.45;;;3.30;99.90;;;;;;6093391;23;20010;-71
2024/01/13 00:12:02;;;;;;;12.07;3.42;;;3.40;99.90;;;;;;6092487;23;20018;-71
2024/01/13 00:14:28;;;;;;;13.90;3.45;;;3.40;99.90;;;;;;6089583;23;20014;-70
2024/01/13 00:16:54;;;;;;;13.50;3.30;;;3.40;99.90;;;;;;6092907;23;20014;-71
2024/01/13 00:19:19;;;;;;;12.52;4.13;;;3.40;99.90;;;;;;6044154;23;20026;-71
2024/01/13 00:21:45;;;;;;;16.58;4.13;;;3.40;99.90;;;;;;6093720;23;20015;-71
2024/01/13 00:24:11;;;;;;;16.30;3.60;;;3.40;99.90;;;;;;6094392;23;20093;-70
2024/01/13 00:26:36;;;;;;;11.52;3.90;;;3.40;99.90;;;;;;6093701;23;20018;-71
2024/01/13 00:29:02;;;;;;;19.85;3.70;;;3.40;99.90;;;;;;6094013;23;20022;-71
2024/01/13 00:31:28;;;;;;;27.30;5.65;;;3.40;99.90;;;;;;6093770;23;20038;-70
2024/01/13 00:33:53;;;;;;;23.55;4.15;;;3.40;99.90;;;;;;6093485;23;20025;-70
2024/01/13 00:36:19;;;;;;;22.10;5.07;;;3.40;99.90;;;;;;6094287;23;20014;-70
2024/01/13 00:38:45;;;;;;;16.48;5.03;;;3.40;99.90;;;;;;6094079;23;20018;-70
2024/01/13 00:41:10;;;;;;;12.45;3.50;;;3.40;99.90;;;;;;6093366;23;20571;-70
2024/01/13 00:43:36;;;;;;;14.40;3.83;;;3.40;99.90;;;;;;6093218;23;20467;-70
2024/01/13 00:46:02;;;;;;;12.50;4.15;;;3.40;99.90;;;;;;6067354;23;20102;-71
2024/01/13 00:48:28;;;;;;;19.42;5.20;;;3.50;99.90;;;;;;6093523;23;20033;-70
2024/01/13 00:50:54;;;;;;;14.38;4.05;;;3.50;99.90;;;;;;6094085;23;20342;-70
2024/01/13 00:53:20;;;;;;;16.45;4.57;;;3.50;99.90;;;;;;6093600;23;20025;-71
2024/01/13 00:55:45;;;;;;;12.82;3.28;;;3.50;99.90;;;;;;6094038;23;20029;-71
2024/01/13 00:58:11;;;;;;;9.88;3.60;;;3.50;99.90;;;;;;6093055;23;20109;-71
2024/01/13 01:00:37;;;;;;;15.27;3.00;;;3.50;99.90;;;;;;6093514;23;20029;-71
2024/01/13 01:03:03;;;;;;;13.32;3.22;;;3.50;99.90;;;;;;6093437;23;20025;-71
2024/01/13 01:05:28;;;;;;;10.02;3.28;;;3.50;99.90;;;;;;6068495;23;20022;-71
2024/01/13 01:07:54;;;;;;;13.25;3.30;;;3.50;99.90;;;;;;6067972;23;20018;-71
2024/01/13 01:10:20;;;;;;;11.77;3.30;;;3.60;99.90;;;;;;6093643;23;20326;-71
2024/01/13 01:12:45;;;;;;;9.10;3.25;;;3.50;99.90;;;;;;6093350;23;20398;-70
2024/01/13 01:15:11;;;;;;;9.38;3.25;;;3.60;99.90;;;;;;6089845;23;20070;-71
2024/01/13 01:17:37;;;;;;;13.95;3.05;;;3.50;99.90;;;;;;6093122;23;20435;-71
2024/01/13 01:20:03;;;;;;;18.85;3.10;;;3.50;99.90;;;;;;6094399;23;20052;-72
2024/01/13 01:22:28;;;;;;;14.25;3.92;;;3.60;99.90;;;;;;6092660;23;20046;-71
2024/01/13 01:24:54;;;;;;;8.20;2.60;;;3.60;99.90;;;;;;6092729;23;20105;-71
2024/01/13 01:27:20;;;;;;;12.88;2.50;;;3.50;99.90;;;;;;6093615;23;20018;-71
2024/01/13 01:29:45;;;;;;;13.82;3.50;;;3.50;99.90;;;;;;6092256;23;20025;-71
2024/01/13 01:32:11;;;;;;;10.23;3.22;;;3.50;99.90;;;;;;6092709;23;20029;-71
2024/01/13 01:34:37;;;;;;;12.52;3.08;;;3.50;99.90;;;;;;6093158;23;20053;-71
2024/01/13 01:37:02;;;;;;;9.80;3.65;;;3.50;99.90;;;;;;6093267;23;20384;-71
2024/01/13 01:39:28;;;;;;;14.10;3.80;;;3.50;99.90;;;;;;6093569;23;20470;-71
2024/01/13 01:41:53;;;;;;;14.20;3.58;;;3.50;99.90;;;;;;6092662;23;20566;-71
2024/01/13 01:44:19;;;;;;;17.98;2.60;;;3.50;99.90;;;;;;6093160;23;20620;-71
2024/01/13 01:46:46;;;;;;;14.43;3.38;;;3.50;99.90;;;;;;6092160;23;20085;-71
2024/01/13 01:49:14;;;;;;;9.13;3.08;;;3.50;99.90;;;;;;6092895;23;20045;-72
2024/01/13 01:51:41;;;;;;;20.23;3.30;;;3.50;99.90;;;;;;6067390;23;20022;-71
2024/01/13 01:54:07;;;;;;;16.83;3.60;;;3.50;99.90;;;;;;6067720;23;20093;-71
2024/01/13 01:56:34;;;;;;;13.05;3.60;;;3.40;99.90;;;;;;6092407;23;20057;-71
2024/01/13 01:59:01;;;;;;;18.75;4.07;;;3.40;99.90;;;;;;6092976;23;20019;-70
2024/01/13 02:01:30;;;;;;;19.48;3.67;;;3.30;99.90;;;;;;6092504;23;20019;-71
2024/01/13 02:03:57;;;;;;;17.52;4.10;;;3.30;99.90;;;;;;6092157;23;20022;-71
2024/01/13 02:06:23;;;;;;;14.07;4.18;;;3.30;99.90;;;;;;6092601;23;20019;-71
2024/01/13 02:08:50;;;;;;;19.70;4.07;;;3.20;99.90;;;;;;6092758;23;20662;-71
2024/01/13 02:11:16;;;;;;;16.85;3.72;;;3.20;99.90;;;;;;6092296;23;20463;-71
2024/01/13 02:13:46;;;;;;;30.63;4.35;;;3.20;99.90;;;;;;6091682;23;20081;-71
2024/01/13 02:16:12;;;;;;;20.88;4.22;;;3.10;99.90;;;;;;6089899;23;20502;-71
2024/01/13 02:18:39;;;;;;;13.70;3.15;;;3.10;99.90;;;;;;6092271;23;20497;-70
2024/01/13 02:21:05;;;;;;;22.65;3.58;;;3.10;99.90;;;;;;6093128;23;20018;-71
2024/01/13 02:23:30;;;;;;;20.83;4.25;;;3.10;99.90;;;;;;6093108;23;20029;-71
2024/01/13 02:25:56;;;;;;;17.45;3.95;;;3.10;99.90;;;;;;6091797;23;20018;-71
2024/01/13 02:28:22;;;;;;;18.33;4.10;;;3.10;99.90;;;;;;6093369;23;20022;-71
2024/01/13 02:30:47;;;;;;;19.90;4.28;;;3.10;99.90;;;;;;6092525;23;20431;-71
2024/01/13 02:33:13;;;;;;;18.45;4.68;;;3.10;99.90;;;;;;6091729;23;20446;-71
2024/01/13 02:35:39;;;;;;;13.95;3.60;;;3.10;99.90;;;;;;6092210;23;20030;-73
2024/01/13 02:38:04;;;;;;;8.50;3.00;;;3.20;99.90;;;;;;6091880;23;20017;-71
2024/01/13 02:40:30;;;;;;;18.73;3.95;;;3.10;99.90;;;;;;6091977;23;20053;-71
2024/01/13 02:42:56;;;;;;;17.42;3.45;;;3.20;99.90;;;;;;6067038;23;20443;-71
2024/01/13 02:45:21;;;;;;;13.63;3.63;;;3.20;99.90;;;;;;6092164;23;20513;-71
2024/01/13 02:48:10;;;;;;;18.08;3.95;;;3.20;99.90;;;;;;6091196;23;20452;-71
2024/01/13 02:50:35;;;;;;;19.92;3.65;;;3.20;99.90;;;;;;6091424;23;20117;-71
2024/01/13 02:53:01;;;;;;;9.30;3.17;;;3.20;99.90;;;;;;6092041;23;20475;-71
2024/01/13 02:55:27;;;;;;;14.82;3.65;;;3.30;99.90;;;;;;6091875;23;20042;-71
2024/01/13 02:57:52;;;;;;;18.40;4.85;;;3.30;99.90;;;;;;6091658;23;20034;-71
2024/01/13 03:00:18;;;;;;;16.50;3.22;;;3.30;99.90;;;;;;6091167;23;20118;-71
2024/01/13 03:02:44;;;;;;;15.98;3.40;;;3.30;99.90;;;;;;6090902;23;20523;-71
2024/01/13 03:05:10;;;;;;;15.30;3.33;;;3.30;99.90;;;;;;6092235;23;20049;-71
2024/01/13 03:07:36;;;;;;;13.10;3.22;;;3.30;99.90;;;;;;6090951;23;20057;-71
2024/01/13 03:10:02;;;;;;;7.18;2.50;;;3.40;99.90;;;;;;6066335;23;20030;-71
2024/01/13 03:12:28;;;;;;;20.23;3.33;;;3.40;99.90;;;;;;6091764;23;20070;-71
2024/01/13 03:14:53;;;;;;;7.82;2.40;;;3.50;99.90;;;;;;6062002;23;20030;-72
2024/01/13 03:17:19;;;;;;;14.52;3.22;;;3.50;99.90;;;;;;6091144;23;20095;-71
2024/01/13 03:19:44;;;;;;;8.90;2.70;;;3.50;99.90;;;;;;6065745;23;20057;-71
2024/01/13 03:22:10;;;;;;;11.05;3.00;;;3.50;99.90;;;;;;6066118;23;20023;-71
2024/01/13 03:24:36;;;;;;;10.88;2.70;;;3.50;99.90;;;;;;6066186;23;20026;-71
2024/01/13 03:27:01;;;;;;;9.80;2.70;;;3.50;99.90;;;;;;6066149;23;20028;-71
2024/01/13 03:29:27;;;;;;;8.32;2.58;;;3.50;99.90;;;;;;6091430;23;20050;-71
2024/01/13 03:31:53;;;;;;;11.43;2.88;;;3.50;99.90;;;;;;6091324;23;20022;-71
2024/01/13 03:34:18;;;;;;;11.38;2.20;;;3.50;99.90;;;;;;6091993;23;20015;-71
2024/01/13 03:36:44;;;;;;;5.25;2.05;;;3.50;99.90;;;;;;6065505;23;20021;-71
2024/01/13 03:39:10;;;;;;;9.38;2.58;;;3.50;99.90;;;;;;6092028;23;20018;-71
2024/01/13 03:41:35;;;;;;;9.40;2.53;;;3.50;99.90;;;;;;6092276;23;20393;-71
2024/01/13 03:44:01;;;;;;;15.65;3.22;;;3.50;99.90;;;;;;6065571;23;20034;-71
2024/01/13 03:46:27;;;;;;;8.85;2.72;;;3.50;99.90;;;;;;6091101;23;20042;-71
2024/01/13 03:48:53;;;;;;;12.77;2.58;;;3.50;99.90;;;;;;6091851;23;20069;-71
2024/01/13 03:51:18;;;;;;;12.40;2.78;;;3.60;99.90;;;;;;6065266;23;20014;-71
2024/01/13 03:53:44;;;;;;;15.10;2.92;;;3.50;99.90;;;;;;6065327;23;20442;-71
2024/01/13 03:56:10;;;;;;;14.00;2.75;;;3.50;99.90;;;;;;6091784;23;20014;-71
2024/01/13 03:58:36;;;;;;;15.73;2.75;;;3.50;99.90;;;;;;6092039;23;20025;-71
2024/01/13 04:01:02;;;;;;;5.20;2.30;;;3.50;99.90;;;;;;6090739;23;20463;-71
2024/01/13 04:03:28;;;;;;;9.75;2.72;;;3.50;99.90;;;;;;6091230;23;20022;-71
2024/01/13 04:05:54;;;;;;;11.18;2.90;;;3.50;99.90;;;;;;6091482;23;20019;-71
2024/01/13 04:08:21;;;;;;;10.15;2.58;;;3.60;99.90;;;;;;6091428;23;20056;-71
2024/01/13 04:10:47;;;;;;;12.25;2.80;;;3.50;99.90;;;;;;6091643;23;20081;-71
2024/01/13 04:13:14;;;;;;;13.60;2.72;;;3.60;99.90;;;;;;6091087;23;20101;-71
2024/01/13 04:15:39;;;;;;;10.07;3.25;;;3.50;99.90;;;;;;6088095;23;20064;-72
2024/01/13 04:18:06;;;;;;;7.63;2.20;;;3.60;99.90;;;;;;6090916;23;20577;-71
2024/01/13 04:20:31;;;;;;;8.18;2.30;;;3.60;99.90;;;;;;6092514;23;20105;-71
2024/01/13 04:22:57;;;;;;;5.22;1.77;;;3.60;99.90;;;;;;6092755;23;20130;-71
2024/01/13 04:25:23;;;;;;;7.82;2.15;;;3.60;99.90;;;;;;6092025;23;20026;-71
2024/01/13 04:27:50;;;;;;;10.35;2.50;;;3.50;99.90;;;;;;6093120;23;20098;-71
2024/01/13 04:30:16;;;;;;;13.40;1.95;;;3.50;99.90;;;;;;6092585;23;20018;-71
2024/01/13 04:32:42;;;;;;;13.98;2.85;;;3.50;99.90;;;;;;6066417;23;20022;-71
2024/01/13 04:35:08;;;;;;;5.38;1.63;;;3.50;99.90;;;;;;6067805;23;20057;-71
2024/01/13 04:37:35;;;;;;;7.65;1.88;;;3.40;99.90;;;;;;6093304;23;20022;-71
2024/01/13 04:40:00;;;;;;;11.13;2.00;;;3.40;99.90;;;;;;6093185;23;20163;-71
2024/01/13 04:42:26;;;;;;;5.53;1.70;;;3.50;99.90;;;;;;6067504;23;20070;-71
2024/01/13 04:44:51;;;;;;;9.77;1.58;;;3.50;99.90;;;;;;6092865;23;20026;-71
2024/01/13 04:47:17;;;;;;;6.82;1.80;;;3.40;99.90;;;;;;6067135;23;20098;-71
2024/01/13 04:49:43;;;;;;;6.20;1.60;;;3.40;99.90;;;;;;6093732;23;20064;-71
2024/01/13 04:52:09;;;;;;;6.32;1.42;;;3.40;99.90;;;;;;6092305;23;20085;-71
2024/01/13 04:54:35;;;;;;;6.43;1.55;;;3.40;99.90;;;;;;6067216;23;20026;-71
2024/01/13 04:57:01;;;;;;;4.68;1.58;;;3.40;99.90;;;;;;6067570;23;20093;-71
2024/01/13 04:59:27;;;;;;;4.25;1.30;;;3.50;99.90;;;;;;6093629;23;20093;-71
2024/01/13 05:01:53;;;;;;;8.75;2.40;;;3.50;99.90;;;;;;6092071;23;20022;-71
2024/01/13 05:04:19;;;;;;;7.55;1.13;;;3.50;99.90;;;;;;6067135;23;20073;-71
2024/01/13 05:06:44;;;;;;;5.15;1.30;;;3.50;99.90;;;;;;6090930;23;20102;-71
2024/01/13 05:09:11;;;;;;;11.23;1.52;;;3.40;99.90;;;;;;6093142;23;20073;-71
2024/01/13 05:11:36;;;;;;;8.27;1.60;;;3.50;99.90;;;;;;6092763;23;20018;-71
2024/01/13 05:14:02;;;;;;;9.18;1.33;;;3.40;99.90;;;;;;6091017;23;20022;-70
2024/01/13 05:16:28;;;;;;;5.13;1.05;;;3.40;99.90;;;;;;6090200;23;20014;-71
2024/01/13 05:18:53;;;;;;;6.03;1.15;;;3.30;99.90;;;;;;6092613;23;20026;-71
2024/01/13 05:21:19;;;;;;;5.13;1.50;;;3.30;99.90;;;;;;6093388;23;20411;-71
2024/01/13 05:23:45;;;;;;;3.97;1.20;;;3.30;99.90;;;;;;6092195;23;20024;-70
2024/01/13 05:26:11;;;;;;;4.13;1.13;;;3.40;99.90;;;;;;6067124;23;20094;-71
2024/01/13 05:28:37;;;;;;;7.45;1.10;;;3.40;99.90;;;;;;6092661;23;20046;-70
2024/01/13 05:31:02;;;;;;;5.15;1.20;;;3.40;99.90;;;;;;6065571;23;20074;-71
2024/01/13 05:33:28;;;;;;;4.15;1.00;;;3.40;99.90;;;;;;6091657;23;20106;-71
2024/01/13 05:35:54;;;;;;;3.00;0.80;;;3.40;99.90;;;;;;6093160;23;20016;-71
2024/01/13 05:38:20;;;;;;;4.85;1.08;;;3.50;99.90;;;;;;6067303;23;20026;-71
2024/01/13 05:40:47;;;;;;;5.18;1.00;;;3.50;99.90;;;;;;6066258;23;20022;-71
2024/01/13 05:43:13;;;;;;;4.43;0.88;;;3.50;99.90;;;;;;6091241;23;20031;-71
2024/01/13 05:45:39;;;;;;;3.78;1.00;;;3.50;99.90;;;;;;6066824;23;20069;-71
2024/01/13 05:48:05;;;;;;;3.80;0.95;;;3.50;99.90;;;;;;6066250;23;20081;-71
2024/01/13 05:50:30;;;;;;;2.20;0.80;;;3.50;99.90;;;;;;6067424;23;20546;-70
2024/01/13 05:52:56;;;;;;;4.57;1.00;;;3.50;99.90;;;;;;6067296;23;20510;-71
2024/01/13 05:55:22;;;;;;;4.43;1.00;;;3.50;99.90;;;;;;6092246;23;20022;-70
2024/01/13 05:57:48;;;;;;;4.82;0.75;;;3.50;99.90;;;;;;6092437;23;20021;-71
2024/01/13 06:00:14;;;;;;;4.93;0.98;;;3.50;99.90;;;;;;6065581;23;20029;-71
2024/01/13 06:02:40;;;;;;;11.00;1.30;;;3.50;99.90;;;;;;6091643;23;20022;-71
2024/01/13 06:05:06;;;;;;;7.30;1.02;;;3.50;99.90;;;;;;6042627;23;20339;-70
2024/01/13 06:07:32;;;;;;;5.57;1.10;;;3.40;99.90;;;;;;6091965;23;20026;-71
2024/01/13 06:09:58;;;;;;;4.18;0.90;;;3.30;99.90;;;;;;6092101;23;20014;-71
2024/01/13 06:12:23;;;;;;;6.07;1.30;;;3.30;99.90;;;;;;6092407;23;20021;-71
2024/01/13 06:14:49;;;;;;;4.35;1.45;;;3.30;99.90;;;;;;6088835;23;20022;-71
2024/01/13 06:17:14;;;;;;;5.80;1.73;;;3.40;99.90;;;;;;6091202;23;20030;-71
2024/01/13 06:19:41;;;;;;;8.48;1.70;;;3.40;99.90;;;;;;6091912;23;20019;-71
2024/01/13 06:22:07;;;;;;;11.10;1.92;;;3.50;99.90;;;;;;6092605;23;20479;-71
2024/01/13 06:24:33;;;;;;;6.80;1.70;;;3.50;99.90;;;;;;6091981;23;20025;-71
2024/01/13 06:26:59;;;;;;;6.03;1.60;;;3.50;99.90;;;;;;6092428;23;20018;-71
2024/01/13 06:29:25;;;;;;;11.90;1.95;;;3.60;99.90;;;;;;6092110;23;20074;-71
2024/01/13 06:31:51;;;;;;;10.75;2.15;;;3.60;99.90;;;;;;6065529;23;20027;-71
2024/01/13 06:34:16;;;;;;;7.43;1.63;;;3.60;99.90;;;;;;6092232;23;20018;-71
2024/01/13 06:36:42;;;;;;;6.95;1.48;;;3.70;99.90;;;;;;6092160;23;20023;-71
2024/01/13 06:39:08;;;;;;;5.55;1.55;;;3.70;99.90;;;;;;6091618;23;20097;-71
2024/01/13 06:41:33;;;;;;;9.57;1.73;;;3.70;99.90;;;;;;6092357;23;20019;-71
2024/01/13 06:43:59;;;;;;;11.50;1.88;;;3.70;99.90;;;;;;6065239;23;20026;-71
2024/01/13 06:46:25;;;;;;;9.93;2.35;;;3.70;99.90;;;;;;6066389;23;20024;-71
2024/01/13 06:48:50;;;;;;;4.20;1.85;;;3.70;99.90;;;;;;6092213;23;20843;-71
2024/01/13 06:51:16;;;;;;;5.88;2.40;;;3.70;99.90;;;;;;6092540;23;20015;-71
2024/01/13 06:53:42;;;;;;;8.95;2.33;;;3.70;99.90;;;;;;6091709;23;20064;-71
2024/01/13 06:56:08;;;;;;;11.00;3.08;;;3.60;99.90;;;;;;6092108;23;20019;-70
2024/01/13 06:58:34;;;;;;;11.57;2.95;;;3.60;99.90;;;;;;6092018;23;20454;-71
2024/01/13 07:01:00;;;;;;;12.45;4.22;;;3.60;99.90;;;;;;6091690;23;20049;-71
2024/01/13 07:03:26;;;;;;;17.73;7.07;;;3.60;99.90;;;;;;6091302;23;20026;-71
2024/01/13 07:05:51;;;;;;;28.48;9.60;;;3.60;99.90;;;;;;6090737;23;20585;-71
2024/01/13 07:08:18;;;;;;;25.98;11.50;;;3.70;99.90;;;;;;6092142;23;20018;-71
2024/01/13 07:10:43;;;;;;;35.38;15.05;;;3.70;99.90;;;;;;6091573;23;20097;-71
2024/01/13 07:13:09;;;;;;;35.60;15.00;;;3.70;99.90;;;;;;6092027;23;20018;-71
2024/01/13 07:15:35;;;;;;;36.17;18.85;;;3.70;99.90;;;;;;6087459;23;20033;-71
2024/01/13 07:18:01;;;;;;;39.75;18.90;;;3.70;99.90;;;;;;6090781;23;20324;-71
2024/01/13 07:20:27;;;;;;;46.58;20.83;;;3.70;99.90;;;;;;6091720;23;20018;-71
2024/01/13 07:22:53;;;;;;;46.92;21.50;;;3.70;99.90;;;;;;6092322;23;20053;-72
2024/01/13 07:25:19;;;;;;;45.88;22.38;;;3.70;99.90;;;;;;6091116;23;20050;-71
2024/01/13 07:27:44;;;;;;;46.60;23.05;;;3.70;99.90;;;;;;6065943;23;20027;-73
2024/01/13 07:30:11;;;;;;;44.22;23.85;;;3.70;99.90;;;;;;6090633;23;20058;-71
2024/01/13 07:32:36;;;;;;;49.63;21.65;;;3.70;99.90;;;;;;6090860;23;20208;-72
2024/01/13 07:35:02;;;;;;;41.58;22.60;;;3.70;99.90;;;;;;6091646;23;20050;-72
2024/01/13 07:37:28;;;;;;;48.58;23.15;;;3.70;99.90;;;;;;6090265;23;20041;-72
2024/01/13 07:39:54;;;;;;;49.30;23.35;;;3.70;99.90;;;;;;6092257;23;20451;-71
2024/01/13 07:42:20;;;;;;;46.25;23.50;;;3.70;99.90;;;;;;6091412;23;20131;-72
2024/01/13 07:44:45;;;;;;;44.78;21.60;;;3.70;99.90;;;;;;6065622;23;20025;-72
2024/01/13 07:47:11;;;;;;;50.33;23.20;;;3.70;99.90;;;;;;6090823;23;20019;-70
2024/01/13 07:49:37;;;;;;;47.97;22.85;;;3.70;99.90;;;;;;6091951;23;20011;-72
2024/01/13 07:52:03;;;;;;;48.92;23.05;;;3.70;99.90;;;;;;6066039;23;20026;-72
2024/01/13 07:54:28;;;;;;;47.22;22.15;;;3.70;99.90;;;;;;6066581;23;20032;-72
2024/01/13 07:56:54;;;;;;;59.42;23.98;;;3.70;99.90;;;;;;6067811;23;20018;-70
2024/01/13 07:59:21;;;;;;;51.65;24.70;;;3.70;99.90;;;;;;6067715;23;20109;-71
2024/01/13 08:01:47;;;;;;;56.50;25.17;;;3.70;99.90;;;;;;6092809;23;20050;-71
2024/01/13 08:04:15;;;;;;;53.75;25.45;;;3.70;99.90;;;;;;6094848;23;20094;-72
2024/01/13 08:06:41;;;;;;;51.35;25.38;;;3.70;99.90;;;;;;6067474;23;20050;-72
2024/01/13 08:09:07;;;;;;;55.20;27.27;;;3.70;99.90;;;;;;6092386;23;20022;-72
2024/01/13 08:11:33;;;;;;;61.90;29.38;;;3.70;99.90;;;;;;6067440;23;20101;-72
2024/01/13 08:13:59;;;;;;;61.60;31.95;;;3.70;99.90;;;;;;6092402;23;20022;-72
2024/01/13 08:16:25;;;;;;;61.50;32.05;;;3.70;99.90;;;;;;6065752;23;20019;-73
2024/01/13 08:18:51;;;;;;;73.32;34.15;;;3.70;99.90;;;;;;6092444;23;20037;-72
2024/01/13 08:21:16;;;;;;;68.90;34.03;;;3.80;99.90;;;;;;6094016;23;20017;-72
2024/01/13 08:23:42;;;;;;;65.68;31.25;;;3.80;99.90;;;;;;6093662;23;20030;-72
2024/01/13 08:26:08;;;;;;;63.67;32.85;;;3.80;99.90;;;;;;6093398;23;20338;-72
2024/01/13 08:28:34;;;;;;;66.50;34.65;;;3.80;99.90;;;;;;6093693;23;20018;-72
2024/01/13 08:31:00;;;;;;;72.97;36.75;;;3.80;99.90;;;;;;6092921;23;20402;-72
2024/01/13 08:33:25;;;;;;;65.90;35.15;;;3.80;99.90;;;;;;6093073;23;20015;-72
2024/01/13 08:35:51;;;;;;;62.83;35.95;;;3.80;99.90;;;;;;6093411;23;20451;-72
2024/01/13 08:38:16;;;;;;;61.35;34.60;;;3.80;99.90;;;;;;6093765;23;20097;-71
2024/01/13 08:40:46;;;;;;;56.53;31.98;;;3.80;99.90;;;;;;6068407;23;20022;-72
2024/01/13 08:43:13;;;;;;;56.22;31.38;;;3.80;99.90;;;;;;6093694;23;20248;-72
2024/01/13 08:45:38;;;;;;;63.30;35.40;;;3.80;99.90;;;;;;6093737;23;20074;-72
2024/01/13 08:48:05;;;;;;;60.53;33.65;;;3.90;99.90;;;;;;6068016;23;20526;-72
2024/01/13 08:50:34;;;;;;;70.03;36.33;;;3.90;99.90;;;;;;6092912;23;20025;-72
2024/01/13 08:53:00;;;;;;;64.22;34.53;;;3.90;99.90;;;;;;6092845;23;20018;-72
2024/01/13 08:55:25;;;;;;;66.00;36.45;;;3.90;99.90;;;;;;6093238;23;20469;-72
2024/01/13 08:57:51;;;;;;;67.30;36.65;;;3.90;99.90;;;;;;6094482;23;20082;-72
2024/01/13 09:00:18;;;;;;;61.67;34.13;;;3.90;99.90;;;;;;6066911;23;20105;-72
2024/01/13 09:02:44;;;;;;;60.83;34.80;;;3.90;99.90;;;;;;6093058;23;20018;-72
2024/01/13 09:05:11;;;;;;;67.18;34.60;;;4.00;99.90;;;;;;6067280;23;20033;-71
2024/01/13 09:07:37;;;;;;;60.97;33.05;;;3.90;99.90;;;;;;6068346;23;20609;-71
2024/01/13 09:10:04;;;;;;;54.90;31.40;;;4.00;99.90;;;;;;6093901;23;20034;-71
2024/01/13 09:12:30;;;;;;;55.53;31.75;;;4.00;99.90;;;;;;6041694;23;20046;-71
2024/01/13 09:14:56;;;;;;;60.30;31.02;;;3.90;99.90;;;;;;6063170;23;20114;-71
2024/01/13 09:17:22;;;;;;;53.35;29.65;;;4.00;99.90;;;;;;6092344;23;20053;-72
2024/01/13 09:19:48;;;;;;;60.75;29.45;;;3.90;99.90;;;;;;6092849;23;20038;-72
2024/01/13 09:22:14;;;;;;;45.30;25.48;;;3.90;99.90;;;;;;6068321;23;20018;-72
2024/01/13 09:24:41;;;;;;;47.30;26.63;;;3.90;99.90;;;;;;6066574;23;20064;-72
2024/01/13 09:27:07;;;;;;;50.60;23.23;;;3.90;99.90;;;;;;6067773;23;20067;-71
2024/01/13 09:29:33;;;;;;;40.05;21.45;;;3.90;99.90;;;;;;6092608;23;20019;-72
2024/01/13 09:31:59;;;;;;;39.70;20.95;;;3.90;99.90;;;;;;6066513;23;20026;-72
2024/01/13 09:34:25;;;;;;;41.67;21.27;;;4.00;99.90;;;;;;6092701;23;20062;-73
2024/01/13 09:36:51;;;;;;;41.00;20.20;;;4.00;99.90;;;;;;6066193;23;20018;-72
2024/01/13 09:39:17;;;;;;;34.28;17.90;;;3.90;99.90;;;;;;6091691;23;20033;-72
2024/01/13 09:41:44;;;;;;;33.97;18.38;;;4.00;99.90;;;;;;6067148;23;20018;-71
2024/01/13 09:44:21;;;;;;;33.67;16.85;;;4.00;99.90;;;;;;6066762;23;20355;-68
2024/01/13 09:46:49;;;;;;;36.08;18.55;;;4.00;99.90;;;;;;6092088;23;20478;-70
2024/01/13 09:49:17;;;;;;;37.42;19.30;;;4.00;99.90;;;;;;6066762;23;20030;-70
2024/01/13 09:51:44;;;;;;;41.22;20.48;;;4.00;99.90;;;;;;6092786;23;20029;-69
2024/01/13 09:54:15;;;;;;;42.17;21.38;;;4.00;99.90;;;;;;6093246;23;20027;-69
2024/01/13 09:56:45;;;;;;;40.15;21.25;;;4.00;99.90;;;;;;6067248;23;20018;-69
2024/01/13 09:59:12;;;;;;;48.15;22.73;;;4.00;99.90;;;;;;6092913;23;20018;-69
2024/01/13 10:01:39;;;;;;;43.25;21.15;;;4.10;99.90;;;;;;6091813;23;20081;-69
2024/01/13 10:04:04;;;;;;;48.72;21.95;;;4.00;99.90;;;;;;6091898;23;20015;-70
2024/01/13 10:06:35;;;;;;;41.63;19.70;;;4.10;99.90;;;;;;6094611;23;20018;-70
2024/01/13 10:09:02;;;;;;;35.17;17.92;;;4.10;99.90;;;;;;6089129;23;20030;-69
2024/01/13 10:11:28;;;;;;;37.90;18.42;;;4.20;99.90;;;;;;6090349;23;20081;-70
2024/01/13 10:14:01;;;;;;;33.92;18.40;;;4.20;99.90;;;;;;6089856;23;20018;-70
2024/01/13 10:16:31;;;;;;;41.92;18.65;;;4.20;99.90;;;;;;6088061;23;20025;-69
2024/01/13 10:19:02;;;;;;;37.90;18.45;;;4.20;99.90;;;;;;6090370;23;20010;-69
2024/01/13 10:21:28;;;;;;;36.55;17.50;;;4.30;99.90;;;;;;6092834;23;20018;-69
2024/01/13 10:23:55;;;;;;;44.97;18.02;;;4.30;99.90;;;;;;6092298;23;20054;-69
2024/01/13 10:26:22;;;;;;;38.42;18.67;;;4.30;99.90;;;;;;6091903;23;20026;-69
2024/01/13 10:28:48;;;;;;;38.88;17.70;;;4.30;99.90;;;;;;6066617;23;20061;-69
2024/01/13 10:31:15;;;;;;;37.28;16.33;;;4.40;99.90;;;;;;6091891;23;20022;-69
2024/01/13 10:33:44;;;;;;;41.90;17.55;;;4.40;99.90;;;;;;6091836;23;20018;-70
2024/01/13 10:36:10;;;;;;;36.83;16.58;;;4.40;99.90;;;;;;6091450;23;20049;-70
2024/01/13 10:38:39;;;;;;;41.40;19.08;;;4.40;99.90;;;;;;6092279;23;20050;-71
2024/01/13 10:41:07;;;;;;;33.33;16.00;;;4.40;99.90;;;;;;6091576;23;20025;-70
2024/01/13 10:43:37;;;;;;;40.05;17.35;;;4.40;99.90;;;;;;6090378;23;20018;-70
2024/01/13 10:46:09;;;;;;;35.88;15.93;;;4.40;99.90;;;;;;6089396;23;20026;-70
2024/01/13 10:48:46;;;;;;;31.60;15.52;;;4.50;99.90;;;;;;6064506;23;20026;-70
2024/01/13 10:51:34;;;;;;;31.13;14.18;;;4.50;99.90;;;;;;6090412;23;20057;-69
2024/01/13 10:54:01;;;;;;;34.58;13.07;;;4.60;99.90;;;;;;6091535;23;20387;-69
2024/01/13 10:56:31;;;;;;;29.50;14.20;;;4.50;99.90;;;;;;6065078;23;20098;-70
2024/01/13 10:58:58;;;;;;;27.27;11.93;;;4.50;99.90;;;;;;6090372;23;20419;-69
2024/01/13 11:01:24;;;;;;;32.85;12.02;;;4.60;99.90;;;;;;6090568;23;20089;-69
2024/01/13 11:03:51;;;;;;;26.80;11.88;;;4.60;99.90;;;;;;6089727;23;20029;-70
2024/01/13 11:06:17;;;;;;;39.60;14.48;;;4.60;99.90;;;;;;6090994;23;20107;-69
2024/01/13 11:08:44;;;;;;;19.98;10.38;;;4.60;99.90;;;;;;6089781;23;20037;-69
2024/01/13 11:11:12;;;;;;;31.63;10.50;;;4.70;99.90;;;;;;6089714;23;20014;-69
2024/01/13 11:13:44;;;;;;;27.75;10.52;;;4.70;99.90;;;;;;6087280;23;20101;-69
2024/01/13 11:16:13;;;;;;;23.25;9.32;;;4.70;99.90;;;;;;6090508;23;20018;-68
2024/01/13 11:18:46;;;;;;;21.50;9.77;;;4.80;99.90;;;;;;6064536;23;20050;-69
2024/01/13 11:21:12;;;;;;;22.87;8.20;;;4.80;99.90;;;;;;6090301;23;20014;-68
2024/01/13 11:23:46;;;;;;;20.17;7.07;;;4.90;99.90;;;;;;6089923;23;20029;-69
2024/01/13 11:26:15;;;;;;;19.63;6.20;;;4.90;99.90;;;;;;6088801;23;20045;-69
2024/01/13 11:28:50;;;;;;;23.05;5.93;;;4.90;99.90;;;;;;6089998;23;20019;-70
2024/01/13 11:31:39;;;;;;;19.02;5.55;;;4.90;99.90;;;;;;6090701;23;20029;-70
2024/01/13 11:34:07;;;;;;;13.20;4.40;;;5.00;99.90;;;;;;6091774;23;20018;-70
2024/01/13 11:36:34;;;;;;;16.45;3.97;;;5.10;99.90;;;;;;6066102;23;20105;-69
2024/01/13 11:39:01;;;;;;;17.17;3.42;;;5.10;99.90;;;;;;6092335;23;20089;-68
2024/01/13 11:41:39;;;;;;;12.30;4.10;;;5.10;99.90;;;;;;6091628;23;20050;-68
2024/01/13 11:44:09;;;;;;;23.42;4.90;;;5.20;99.90;;;;;;6092990;23;20093;-69
2024/01/13 11:46:45;;;;;;;16.40;3.08;;;5.20;99.90;;;;;;6090982;23;20022;-69
2024/01/13 11:49:11;;;;;;;12.85;2.88;;;5.20;99.90;;;;;;6090996;23;20026;-68
2024/01/13 11:51:54;;;;;;;12.15;3.60;;;5.20;99.90;;;;;;6090527;23;20018;-68
2024/01/13 11:54:20;;;;;;;15.70;3.25;;;5.20;99.90;;;;;;6090183;23;20074;-69
2024/01/13 11:56:48;;;;;;;15.02;2.90;;;5.20;99.90;;;;;;6040039;23;20379;-68
2024/01/13 11:59:16;;;;;;;12.65;3.03;;;5.20;99.90;;;;;;6063904;23;20527;-68
2024/01/13 12:01:42;;;;;;;16.23;3.30;;;5.20;99.90;;;;;;6063708;23;20695;-69
2024/01/13 12:04:08;;;;;;;9.88;3.45;;;5.20;99.90;;;;;;6063885;23;20099;-66
2024/01/13 12:06:34;;;;;;;14.73;3.00;;;5.30;99.90;;;;;;6090368;23;20073;-67
2024/01/13 12:09:00;;;;;;;11.77;3.60;;;5.30;99.90;;;;;;6041124;23;20042;-66
2024/01/13 12:11:27;;;;;;;13.85;3.15;;;5.30;99.90;;;;;;6089522;23;20609;-67
2024/01/13 12:13:53;;;;;;;16.85;3.88;;;5.30;99.90;;;;;;6086637;23;20479;-66
2024/01/13 12:16:19;;;;;;;16.52;3.67;;;5.30;99.90;;;;;;6065110;23;20018;-67
2024/01/13 12:18:48;;;;;;;19.15;3.58;;;5.30;99.90;;;;;;6039648;23;20015;-67
2024/01/13 12:21:14;;;;;;;20.33;4.55;;;5.30;99.90;;;;;;6064884;23;20018;-67
2024/01/13 12:23:43;;;;;;;17.30;4.32;;;5.30;99.90;;;;;;6065002;23;20042;-67
2024/01/13 12:26:09;;;;;;;20.88;5.38;;;5.30;99.90;;;;;;6040850;23;20022;-67
2024/01/13 12:28:34;;;;;;;10.52;3.38;;;5.30;99.90;;;;;;6091156;23;20029;-67
2024/01/13 12:31:04;;;;;;;14.32;3.47;;;5.30;99.90;;;;;;6089421;23;20022;-68
2024/01/13 12:33:31;;;;;;;14.93;3.13;;;5.40;99.90;;;;;;6064315;23;20037;-67
2024/01/13 12:36:04;;;;;;;12.68;2.83;;;5.40;99.90;;;;;;6064262;23;20022;-67
2024/01/13 12:38:30;;;;;;;10.43;2.95;;;5.50;99.90;;;;;;6063805;23;20041;-67
2024/01/13 12:40:57;;;;;;;11.82;2.60;;;5.50;99.90;;;;;;6063784;23;20029;-68
2024/01/13 12:43:24;;;;;;;15.32;4.18;;;5.50;99.90;;;;;;6065495;23;20577;-67